Time;durP1;ratioP1;P1;durP2;ratioP2;P2;SDS_P1;SDS_P2;PMS_P1;PMS_P2;Temp;Humidity;BMP_temperature;BMP_pressure;BME280_temperature;BME280_humidity;BME280_pressure;Samples;Min_cycle;Max_cycle;Signal;HPM_P1;HPM_P2
2022/09/12 00:00:17;;;;;;;;;;;16.30;99.90;;;;;;8421050;28;19930;-74
2022/09/12 00:04:19;;;;;;;;;;;16.20;99.90;;;;;;8412014;28;19926;-74
2022/09/12 00:08:21;;;;;;;;;;;16.10;99.90;;;;;;8404927;28;19919;-74
2022/09/12 00:12:22;;;;;;;;;;;16.20;99.90;;;;;;8407434;28;20439;-74
2022/09/12 00:16:25;;;;;;;;;;;16.20;99.90;;;;;;8411160;28;19924;-74
2022/09/12 00:20:26;;;;;;;;;;;16.20;99.90;;;;;;8420610;28;19920;-74
2022/09/12 00:24:28;;;;;;;;;;;16.20;99.90;;;;;;8395670;28;20294;-74
2022/09/12 00:28:29;;;;;;;;;;;16.10;99.90;;;;;;8407781;28;19940;-74
2022/09/12 00:32:31;;;;;;;;;;;16.10;99.90;;;;;;8402213;28;19920;-74
2022/09/12 00:36:33;;;;;;;;;;;16.00;99.90;;;;;;8410239;28;20322;-74
2022/09/12 00:40:34;;;;;;;;;;;16.00;99.90;;;;;;8412175;28;19924;-73
2022/09/12 00:44:36;;;;;;;;;;;16.00;99.90;;;;;;8411095;28;19924;-74
2022/09/12 00:48:41;;;;;;;;;;;15.90;99.90;;;;;;8412462;28;19920;-74
2022/09/12 00:52:46;;;;;;;;;;;15.90;99.90;;;;;;8390777;28;20293;-74
2022/09/12 00:56:49;;;;;;;;;;;15.90;99.90;;;;;;8404001;28;20268;-74
2022/09/12 01:00:51;;;;;;;;;;;15.90;99.90;;;;;;8408759;28;19920;-74
2022/09/12 01:04:52;;;;;;;;;;;15.90;99.90;;;;;;8419686;28;19977;-74
2022/09/12 01:08:54;;;;;;;;;;;15.80;99.90;;;;;;8408420;28;19926;-74
2022/09/12 01:12:56;;;;;;;;;;;15.80;99.90;;;;;;8406182;28;20018;-74
2022/09/12 01:16:58;;;;;;;;;;;15.80;99.90;;;;;;8407905;28;19975;-74
2022/09/12 01:21:03;;;;;;;;;;;15.70;99.90;;;;;;8412462;28;19928;-74
2022/09/12 01:25:27;;;;;;;;;;;15.70;99.90;;;;;;8419786;28;20239;-74
2022/09/12 01:29:31;;;;;;;;;;;15.60;99.90;;;;;;8420645;28;19924;-74
2022/09/12 01:33:48;;;;;;;;;;;15.60;99.90;;;;;;8389751;28;20431;-74
2022/09/12 01:38:09;;;;;;;;;;;15.60;99.90;;;;;;8412561;28;20376;-74
2022/09/12 01:42:32;;;;;;;;;;;15.60;99.90;;;;;;8411859;28;20294;-75
2022/09/12 01:46:33;;;;;;;;;;;15.60;99.90;;;;;;8420402;28;19919;-74
2022/09/12 01:50:39;;;;;;;;;;;15.70;99.90;;;;;;8417294;28;19924;-75
2022/09/12 01:54:45;;;;;;;;;;;15.70;99.90;;;;;;8411717;28;20382;-74
2022/09/12 01:58:54;;;;;;;;;;;15.70;99.90;;;;;;8414966;28;20298;-75
2022/09/12 02:03:01;;;;;;;;;;;15.70;99.90;;;;;;8417157;28;19941;-74
2022/09/12 02:07:10;;;;;;;;;;;15.70;99.90;;;;;;8423238;28;20014;-74
2022/09/12 02:11:12;;;;;;;;;;;15.70;99.90;;;;;;8415346;28;20014;-74
2022/09/12 02:15:16;;;;;;;;;;;15.70;99.90;;;;;;8406966;28;19928;-74
2022/09/12 02:19:19;;;;;;;;;;;15.70;99.90;;;;;;8403282;28;19928;-75
2022/09/12 02:23:23;;;;;;;;;;;15.70;99.90;;;;;;8407715;28;20370;-74
2022/09/12 02:27:36;;;;;;;;;;;15.70;99.90;;;;;;8392204;28;20389;-74
2022/09/12 02:31:45;;;;;;;;;;;15.70;99.90;;;;;;8415330;28;19920;-74
2022/09/12 02:35:50;;;;;;;;;;;15.70;99.90;;;;;;8425141;28;20290;-74
2022/09/12 02:39:53;;;;;;;;;;;15.70;99.90;;;;;;8407350;28;19920;-74
2022/09/12 02:43:55;;;;;;;;;;;15.70;99.90;;;;;;8418496;28;20381;-74
2022/09/12 02:48:11;;;;;;;;;;;15.70;99.90;;;;;;8432187;28;20383;-74
2022/09/12 02:52:14;;;;;;;;;;;15.60;99.90;;;;;;8417574;28;20381;-74
2022/09/12 02:56:22;;;;;;;;;;;15.50;99.90;;;;;;8414620;28;20026;-73
2022/09/12 03:00:24;;;;;;;;;;;15.50;99.90;;;;;;8411096;28;20310;-74
2022/09/12 03:04:32;;;;;;;;;;;15.50;99.90;;;;;;8424246;28;20030;-74
2022/09/12 03:08:46;;;;;;;;;;;15.40;99.90;;;;;;8413845;28;19927;-75
2022/09/12 03:12:48;;;;;;;;;;;15.40;99.90;;;;;;8422913;28;19964;-75
2022/09/12 03:16:50;;;;;;;;;;;15.40;99.90;;;;;;8418983;28;19920;-75
2022/09/12 03:20:55;;;;;;;;;;;15.30;99.90;;;;;;8394450;28;19931;-73
2022/09/12 03:25:08;;;;;;;;;;;15.30;99.90;;;;;;8394368;28;20007;-74
2022/09/12 03:29:10;;;;;;;;;;;15.30;99.90;;;;;;8412666;28;19921;-74
2022/09/12 03:33:13;;;;;;;;;;;15.20;99.90;;;;;;8413609;28;19967;-74
2022/09/12 03:37:14;;;;;;;;;;;15.20;99.90;;;;;;8412462;28;20027;-74
2022/09/12 03:41:16;;;;;;;;;;;15.10;99.90;;;;;;8416800;28;20359;-74
2022/09/12 03:45:18;;;;;;;;;;;15.10;99.90;;;;;;8414099;28;19935;-72
2022/09/12 03:49:19;;;;;;;;;;;15.10;99.90;;;;;;8403096;28;20015;-73
2022/09/12 03:53:21;;;;;;;;;;;15.10;99.90;;;;;;8415649;28;19928;-73
2022/09/12 03:57:22;;;;;;;;;;;15.10;99.90;;;;;;8394283;28;19924;-73
2022/09/12 04:01:24;;;;;;;;;;;15.10;99.90;;;;;;8416226;28;19960;-73
2022/09/12 04:05:26;;;;;;;;;;;15.20;99.90;;;;;;8415314;28;19924;-72
2022/09/12 04:09:27;;;;;;;;;;;15.20;99.90;;;;;;8421897;28;19919;-73
2022/09/12 04:13:29;;;;;;;;;;;15.20;99.90;;;;;;8421453;28;19931;-73
2022/09/12 04:17:30;;;;;;;;;;;15.20;99.90;;;;;;8420877;28;20327;-72
2022/09/12 04:21:32;;;;;;;;;;;15.20;99.90;;;;;;8419607;28;19930;-73
2022/09/12 04:25:34;;;;;;;;;;;15.20;99.90;;;;;;8391027;28;20349;-72
2022/09/12 04:29:35;;;;;;;;;;;15.20;99.90;;;;;;8402291;28;19924;-73
2022/09/12 04:33:37;;;;;;;;;;;15.20;99.90;;;;;;8416202;28;20376;-73
2022/09/12 04:37:39;;;;;;;;;;;15.20;99.90;;;;;;8408242;28;20011;-73
2022/09/12 04:41:41;;;;;;;;;;;15.20;99.90;;;;;;8405429;28;19920;-73
2022/09/12 04:45:43;;;;;;;;;;;15.20;99.90;;;;;;8413170;28;20429;-73
2022/09/12 04:49:44;;;;;;;;;;;15.20;99.90;;;;;;8418846;28;19967;-72
2022/09/12 04:53:47;;;;;;;;;;;15.20;99.90;;;;;;8424985;28;19923;-73
2022/09/12 04:57:49;;;;;;;;;;;15.20;99.90;;;;;;8406768;28;20347;-73
2022/09/12 05:01:50;;;;;;;;;;;15.20;99.90;;;;;;8420751;28;19927;-73
2022/09/12 05:05:52;;;;;;;;;;;15.20;99.90;;;;;;8407074;28;20364;-73
2022/09/12 05:09:57;;;;;;;;;;;15.20;99.90;;;;;;8402259;28;19921;-73
2022/09/12 05:13:58;;;;;;;;;;;15.20;99.90;;;;;;8412933;28;20064;-73
2022/09/12 05:18:00;;;;;;;;;;;15.20;99.90;;;;;;8405705;28;19920;-73
2022/09/12 05:22:03;;;;;;;;;;;15.20;99.90;;;;;;8412507;28;19930;-73
2022/09/12 05:26:05;;;;;;;;;;;15.20;99.90;;;;;;8410645;28;20375;-73
2022/09/12 05:30:07;;;;;;;;;;;15.20;99.90;;;;;;8392808;28;19920;-73
2022/09/12 05:34:10;;;;;;;;;;;15.20;99.90;;;;;;8408746;28;19920;-74
2022/09/12 05:38:11;;;;;;;;;;;15.20;99.90;;;;;;8419313;28;19950;-73
2022/09/12 05:42:13;;;;;;;;;;;15.20;99.90;;;;;;8400920;28;19926;-73
2022/09/12 05:46:16;;;;;;;;;;;15.20;99.90;;;;;;8420468;28;19924;-73
2022/09/12 05:50:17;;;;;;;;;;;15.20;99.90;;;;;;8424978;28;20561;-73
2022/09/12 05:54:19;;;;;;;;;;;15.20;99.90;;;;;;8421778;28;19924;-75
2022/09/12 05:58:21;;;;;;;;;;;15.20;99.90;;;;;;8420011;28;19955;-73
2022/09/12 06:02:23;;;;;;;;;;;15.20;99.90;;;;;;8398524;28;19924;-73
2022/09/12 06:06:26;;;;;;;;;;;15.20;99.90;;;;;;8409647;28;20355;-73
2022/09/12 06:10:28;;;;;;;;;;;15.20;99.90;;;;;;8419050;28;19926;-73
2022/09/12 06:14:31;;;;;;;;;;;15.10;99.90;;;;;;8418742;28;19920;-73
2022/09/12 06:18:37;;;;;;;;;;;15.10;99.90;;;;;;8417531;28;19921;-73
2022/09/12 06:22:38;;;;;;;;;;;15.20;99.90;;;;;;8423307;28;19961;-73
2022/09/12 06:26:40;;;;;;;;;;;15.20;99.90;;;;;;8415792;28;19927;-73
2022/09/12 06:30:42;;;;;;;;;;;15.10;99.90;;;;;;8416868;28;19924;-73
2022/09/12 06:34:47;;;;;;;;;;;15.20;99.90;;;;;;8406028;28;19966;-73
2022/09/12 06:38:56;;;;;;;;;;;15.20;99.90;;;;;;8412469;28;20109;-73
2022/09/12 06:42:57;;;;;;;;;;;15.20;99.90;;;;;;8418926;28;19924;-73
2022/09/12 06:46:59;;;;;;;;;;;15.30;99.90;;;;;;8419313;28;19924;-73
2022/09/12 06:51:03;;;;;;;;;;;15.40;99.90;;;;;;8398148;28;19928;-74
2022/09/12 06:55:04;;;;;;;;;;;15.50;99.90;;;;;;8403000;28;19932;-73
2022/09/12 06:59:06;;;;;;;;;;;15.60;99.90;;;;;;8425176;28;20007;-73
2022/09/12 07:03:08;;;;;;;;;;;15.70;99.90;;;;;;8410985;28;19924;-74
2022/09/12 07:07:10;;;;;;;;;;;15.80;99.90;;;;;;8390111;28;20303;-73
2022/09/12 07:11:14;;;;;;;;;;;15.80;99.90;;;;;;8393895;28;19927;-73
2022/09/12 07:15:16;;;;;;;;;;;15.90;99.90;;;;;;8392645;28;19977;-73
2022/09/12 07:19:18;;;;;;;;;;;16.00;99.90;;;;;;8399714;28;20352;-74
2022/09/12 07:23:20;;;;;;;;;;;16.10;99.90;;;;;;8392984;28;19924;-74
2022/09/12 07:27:22;;;;;;;;;;;16.10;99.90;;;;;;8396447;28;20275;-73
2022/09/12 07:31:25;;;;;;;;;;;16.20;99.90;;;;;;8392544;28;19928;-74
2022/09/12 07:35:27;;;;;;;;;;;16.30;99.90;;;;;;8394024;28;19927;-73
2022/09/12 07:39:29;;;;;;;;;;;16.40;99.90;;;;;;8391784;28;20329;-73
2022/09/12 07:43:30;;;;;;;;;;;16.50;99.90;;;;;;8393194;28;19924;-73
2022/09/12 07:47:32;;;;;;;;;;;16.60;99.90;;;;;;8386764;28;19926;-73
2022/09/12 07:51:33;;;;;;;;;;;16.70;99.90;;;;;;8396014;28;20389;-73
2022/09/12 07:55:35;;;;;;;;;;;16.80;99.90;;;;;;8391575;28;20443;-73
2022/09/12 07:59:41;;;;;;;;;;;16.90;99.90;;;;;;8391108;28;19987;-73
2022/09/12 08:03:55;;;;;;;;;;;17.00;99.90;;;;;;8392936;28;20011;-73
2022/09/12 08:07:57;;;;;;;;;;;17.10;99.90;;;;;;8350858;28;19951;-73
2022/09/12 08:11:59;;;;;;;;;;;17.20;99.90;;;;;;8353891;28;19944;-73
2022/09/12 08:16:04;;;;;;;;;;;17.30;99.90;;;;;;8354619;28;19935;-73
2022/09/12 08:20:06;;;;;;;;;;;17.40;99.90;;;;;;8357341;28;20023;-73
2022/09/12 08:24:10;;;;;;;;;;;17.60;99.90;;;;;;8349769;28;20047;-73
2022/09/12 08:28:11;;;;;;;;;;;17.70;99.90;;;;;;8356754;28;19936;-73
2022/09/12 08:32:13;;;;;;;;;;;17.80;99.90;;;;;;8345333;28;20367;-73
2022/09/12 08:36:16;;;;;;;;;;;18.00;99.90;;;;;;8357091;28;20042;-72
2022/09/12 08:40:18;;;;;;;;;;;18.10;99.90;;;;;;8339408;28;19958;-73
2022/09/12 08:44:19;;;;;;;;;;;18.20;99.90;;;;;;8337433;28;20329;-74
2022/09/12 08:48:21;;;;;;;;;;;18.40;99.90;;;;;;8355307;28;24323;-73
2022/09/12 08:52:28;;;;;;;;;;;18.50;99.90;;;;;;8356803;28;20053;-74
2022/09/12 08:56:34;;;;;;;;;;;18.60;99.90;;;;;;8361214;28;20279;-73
2022/09/12 09:00:45;;;;;;;;;;;18.70;99.90;;;;;;8361064;28;19933;-73
2022/09/12 09:04:51;;;;;;;;;;;18.70;99.90;;;;;;8351643;28;19944;-73
2022/09/12 09:09:08;;;;;;;;;;;18.80;99.90;;;;;;8392780;28;20345;-73
2022/09/12 09:13:12;;;;;;;;;;;18.80;99.90;;;;;;8390571;28;20477;-74
2022/09/12 09:17:24;;;;;;;;;;;18.90;99.90;;;;;;8385315;28;19967;-75
2022/09/12 09:21:31;;;;;;;;;;;19.00;99.90;;;;;;8367563;28;20326;-73
2022/09/12 09:25:40;;;;;;;;;;;19.10;99.90;;;;;;8384414;28;19935;-74
2022/09/12 09:29:47;;;;;;;;;;;19.20;99.90;;;;;;8388839;28;19938;-74
2022/09/12 09:33:50;;;;;;;;;;;19.20;99.90;;;;;;8387467;28;19931;-74
2022/09/12 09:37:51;;;;;;;;;;;19.30;99.90;;;;;;8389766;28;19934;-74
2022/09/12 09:42:10;;;;;;;;;;;19.40;99.90;;;;;;8388365;28;19925;-74
2022/09/12 09:46:12;;;;;;;;;;;19.50;99.90;;;;;;8383776;28;20302;-73
2022/09/12 09:50:15;;;;;;;;;;;19.60;99.90;;;;;;8385166;28;20374;-74
2022/09/12 09:54:22;;;;;;;;;;;19.70;99.90;;;;;;8385087;28;19939;-74
2022/09/12 09:58:34;;;;;;;;;;;19.70;99.90;;;;;;8384220;28;19932;-73
2022/09/12 10:02:35;;;;;;;;;;;19.80;99.90;;;;;;8398902;28;19960;-73
2022/09/12 10:06:37;;;;;;;;;;;20.00;99.90;;;;;;8401120;28;20390;-74
2022/09/12 10:10:51;;;;;;;;;;;20.10;99.90;;;;;;8400429;28;20041;-73
2022/09/12 10:15:14;;;;;;;;;;;20.20;99.90;;;;;;8405427;28;20008;-73
2022/09/12 10:19:22;;;;;;;;;;;20.30;99.90;;;;;;8399231;28;20011;-73
2022/09/12 10:23:24;;;;;;;;;;;20.40;99.90;;;;;;8403910;28;19938;-74
2022/09/12 10:27:32;;;;;;;;;;;20.50;99.90;;;;;;8405963;28;19963;-74
2022/09/12 10:31:54;;;;;;;;;;;20.60;99.90;;;;;;8403096;28;20291;-74
2022/09/12 10:35:56;;;;;;;;;;;20.60;99.90;;;;;;8406245;28;19934;-73
2022/09/12 10:39:58;;;;;;;;;;;20.70;99.90;;;;;;8409475;28;19986;-73
2022/09/12 10:44:05;;;;;;;;;;;20.80;99.90;;;;;;8407169;28;19928;-73
2022/09/12 10:48:25;;;;;;;;;;;20.80;99.90;;;;;;8407442;28;19932;-73
2022/09/12 10:52:27;;;;;;;;;;;20.90;99.90;;;;;;8406737;28;20371;-73
2022/09/12 10:56:38;;;;;;;;;;;21.00;99.90;;;;;;8407591;28;19928;-74
2022/09/12 11:00:43;;;;;;;;;;;21.00;99.90;;;;;;8407232;28;19946;-73
2022/09/12 11:04:55;;;;;;;;;;;21.10;99.90;;;;;;8408806;28;19932;-73
2022/09/12 11:09:08;;;;;;;;;;;21.20;99.90;;;;;;8408294;28;19934;-74
2022/09/12 11:13:18;;;;;;;;;;;21.30;99.90;;;;;;8406838;28;20028;-74
2022/09/12 11:17:43;;;;;;;;;;;21.30;99.90;;;;;;8388963;28;19985;-74
2022/09/12 11:21:44;;;;;;;;;;;21.40;99.90;;;;;;8404037;28;19942;-74
2022/09/12 11:25:46;;;;;;;;;;;21.50;99.90;;;;;;8406138;28;20367;-74
2022/09/12 11:29:47;;;;;;;;;;;21.60;99.90;;;;;;8406457;28;20008;-73
2022/09/12 11:33:50;;;;;;;;;;;21.80;99.90;;;;;;8392426;28;19932;-74
2022/09/12 11:38:08;;;;;;;;;;;21.90;99.90;;;;;;8405745;28;20046;-75
2022/09/12 11:42:15;;;;;;;;;;;22.00;99.90;;;;;;8405249;28;20023;-73
2022/09/12 11:46:20;;;;;;;;;;;22.00;99.90;;;;;;8405983;28;20004;-74
2022/09/12 11:50:31;;;;;;;;;;;22.20;99.90;;;;;;8403062;28;19928;-74
2022/09/12 11:54:39;;;;;;;;;;;22.30;99.90;;;;;;8403795;28;20019;-73
2022/09/12 11:58:42;;;;;;;;;;;22.40;99.90;;;;;;8402530;28;19928;-73
2022/09/12 12:03:02;;;;;;;;;;;22.40;99.90;;;;;;8408104;28;20020;-74
2022/09/12 12:07:06;;;;;;;;;;;22.40;99.90;;;;;;8402819;28;20007;-74
2022/09/12 12:11:08;;;;;;;;;;;22.40;99.90;;;;;;8406361;28;19924;-74
2022/09/12 12:15:12;;;;;;;;;;;22.40;99.90;;;;;;8404479;28;19929;-75
2022/09/12 12:19:14;;;;;;;;;;;22.40;99.90;;;;;;8407848;28;20079;-74
2022/09/12 12:23:23;;;;;;;;;;;22.40;99.90;;;;;;8401356;28;19928;-74
2022/09/12 12:27:44;;;;;;;;;;;22.50;99.90;;;;;;8402026;28;19939;-73
2022/09/12 12:32:09;;;;;;;;;;;22.50;99.90;;;;;;8402774;28;20804;-74
2022/09/12 12:36:33;;;;;;;;;;;22.60;99.90;;;;;;8399791;28;19938;-74
2022/09/12 12:40:35;;;;;;;;;;;22.70;99.90;;;;;;8375639;28;19971;-74
2022/09/12 12:44:43;;;;;;;;;;;22.80;99.90;;;;;;8406218;28;19930;-75
2022/09/12 12:49:03;;;;;;;;;;;22.80;99.90;;;;;;8405171;28;19924;-74
2022/09/12 12:53:18;;;;;;;;;;;22.90;99.90;;;;;;8405740;28;19930;-74
2022/09/12 12:57:29;;;;;;;;;;;22.90;99.90;;;;;;8404015;28;19934;-74
2022/09/12 13:01:30;;;;;;;;;;;23.00;99.90;;;;;;8384668;28;20406;-75
2022/09/12 13:05:42;;;;;;;;;;;23.00;99.90;;;;;;8397848;28;20044;-75
2022/09/12 13:09:46;;;;;;;;;;;23.00;99.90;;;;;;8402427;28;20386;-74
2022/09/12 13:13:50;;;;;;;;;;;23.10;99.90;;;;;;8401751;28;19924;-74
2022/09/12 13:17:52;;;;;;;;;;;23.10;99.90;;;;;;8400624;28;20312;-74
2022/09/12 13:21:54;;;;;;;;;;;23.10;99.90;;;;;;8382796;28;20052;-74
2022/09/12 13:25:57;;;;;;;;;;;23.10;99.90;;;;;;8402879;28;19963;-74
2022/09/12 13:30:12;;;;;;;;;;;23.20;99.90;;;;;;8381995;28;19954;-75
2022/09/12 13:34:18;;;;;;;;;;;23.20;99.90;;;;;;8400237;28;19920;-74
2022/09/12 13:38:22;;;;;;;;;;;23.20;99.90;;;;;;8403027;28;19927;-74
2022/09/12 13:42:34;;;;;;;;;;;23.30;99.90;;;;;;8400435;28;20415;-74
2022/09/12 13:46:36;;;;;;;;;;;23.30;99.90;;;;;;8382373;28;19924;-74
2022/09/12 13:50:37;;;;;;;;;;;23.50;99.90;;;;;;8400602;28;19924;-74
2022/09/12 13:54:39;;;;;;;;;;;23.50;99.90;;;;;;8403539;28;19920;-74
2022/09/12 13:58:49;;;;;;;;;;;23.70;99.90;;;;;;8403331;28;20014;-74
2022/09/12 14:05:07;;;;;;;;;;;23.70;99.90;;;;;;8404922;28;19964;-74
2022/09/12 14:07:21;;;;;;;;;;;23.90;99.90;;;;;;8407109;28;19934;-73
2022/09/12 14:11:29;;;;;;;;;;;24.10;99.90;;;;;;8406736;28;20282;-75
2022/09/12 14:15:32;;;;;;;;;;;24.30;99.90;;;;;;8407902;28;19967;-74
2022/09/12 14:19:34;;;;;;;;;;;24.40;99.90;;;;;;8408289;28;19956;-74
2022/09/12 14:23:40;;;;;;;;;;;24.40;99.90;;;;;;8408868;28;20412;-74
2022/09/12 14:27:44;;;;;;;;;;;24.40;99.90;;;;;;8408097;28;19927;-74
2022/09/12 14:31:46;;;;;;;;;;;24.50;99.90;;;;;;8407399;28;19936;-74
2022/09/12 14:36:05;;;;;;;;;;;24.50;99.90;;;;;;8388680;28;20116;-74
2022/09/12 14:40:15;;;;;;;;;;;24.40;99.90;;;;;;8407285;28;19928;-75
2022/09/12 14:44:22;;;;;;;;;;;24.40;99.90;;;;;;8407879;28;20015;-75
2022/09/12 14:48:24;;;;;;;;;;;24.30;99.90;;;;;;8408565;28;20296;-74
2022/09/12 14:52:31;;;;;;;;;;;24.20;99.90;;;;;;8407897;28;19924;-74
2022/09/12 14:56:40;;;;;;;;;;;24.20;99.90;;;;;;8391516;28;19928;-74
2022/09/12 15:00:51;;;;;;;;;;;24.20;99.90;;;;;;8408258;28;19919;-74
2022/09/12 15:04:52;;;;;;;;;;;24.20;99.90;;;;;;8406038;28;20014;-74
2022/09/12 15:08:55;;;;;;;;;;;24.20;99.90;;;;;;8403525;28;19928;-74
2022/09/12 15:13:12;;;;;;;;;;;24.20;99.90;;;;;;8405587;28;20336;-74
2022/09/12 15:17:14;;;;;;;;;;;24.20;99.90;;;;;;8405985;28;19960;-74
2022/09/12 15:21:17;;;;;;;;;;;24.20;99.90;;;;;;8385588;28;19934;-74
2022/09/12 15:25:19;;;;;;;;;;;24.20;99.90;;;;;;8406699;28;19920;-74
2022/09/12 15:29:21;;;;;;;;;;;24.20;99.90;;;;;;8406844;28;19926;-73
2022/09/12 15:33:23;;;;;;;;;;;24.30;99.90;;;;;;8403020;28;20035;-74
2022/09/12 15:37:25;;;;;;;;;;;24.30;99.90;;;;;;8404124;28;20312;-73
2022/09/12 15:41:29;;;;;;;;;;;24.40;99.90;;;;;;8405816;28;20375;-74
2022/09/12 15:45:32;;;;;;;;;;;24.40;99.90;;;;;;8407083;28;19926;-74
2022/09/12 15:49:33;;;;;;;;;;;24.40;99.90;;;;;;8404840;28;20379;-74
2022/09/12 15:53:35;;;;;;;;;;;24.40;99.90;;;;;;8407065;28;19926;-74
2022/09/12 15:57:37;;;;;;;;;;;24.40;99.90;;;;;;8404893;28;19928;-75
2022/09/12 16:01:38;;;;;;;;;;;24.30;99.90;;;;;;8388662;28;20334;-73
2022/09/12 16:05:40;;;;;;;;;;;24.30;99.90;;;;;;8401606;28;19925;-74
2022/09/12 16:09:42;;;;;;;;;;;24.40;99.90;;;;;;8398834;28;19926;-74
2022/09/12 16:13:43;;;;;;;;;;;24.40;99.90;;;;;;8400099;28;20015;-75
2022/09/12 16:17:45;;;;;;;;;;;24.50;99.90;;;;;;8401220;28;20019;-75
2022/09/12 16:21:48;;;;;;;;;;;24.40;99.90;;;;;;8382537;28;20003;-74
2022/09/12 16:25:56;;;;;;;;;;;24.40;99.90;;;;;;8401935;28;19928;-74
2022/09/12 16:29:58;;;;;;;;;;;24.30;99.90;;;;;;8398829;28;20015;-74
2022/09/12 16:33:59;;;;;;;;;;;24.40;99.90;;;;;;8400125;28;19978;-74
2022/09/12 16:38:01;;;;;;;;;;;24.30;99.90;;;;;;8393397;28;20019;-74
2022/09/12 16:42:03;;;;;;;;;;;24.20;99.90;;;;;;8397783;28;20416;-74
2022/09/12 16:46:09;;;;;;;;;;;24.10;99.90;;;;;;8402051;28;20425;-74
2022/09/12 16:50:10;;;;;;;;;;;24.00;99.90;;;;;;8401361;28;19928;-74
2022/09/12 16:54:13;;;;;;;;;;;24.00;99.90;;;;;;8401234;28;19943;-73
2022/09/12 16:58:15;;;;;;;;;;;23.80;99.90;;;;;;8403770;28;20031;-74
2022/09/12 17:02:16;;;;;;;;;;;23.80;99.90;;;;;;8385834;28;19928;-73
2022/09/12 17:06:18;;;;;;;;;;;23.70;99.90;;;;;;8401096;28;20379;-74
2022/09/12 17:10:20;;;;;;;;;;;23.60;99.90;;;;;;8400340;28;19946;-73
2022/09/12 17:14:22;;;;;;;;;;;23.50;99.90;;;;;;8402131;28;19970;-74
2022/09/12 17:18:24;;;;;;;;;;;23.40;99.90;;;;;;8405417;28;20002;-74
2022/09/12 17:22:26;;;;;;;;;;;23.30;99.90;;;;;;8402077;28;19926;-74
2022/09/12 17:26:28;;;;;;;;;;;23.20;99.90;;;;;;8399478;28;20066;-74
2022/09/12 17:30:33;;;;;;;;;;;23.10;99.90;;;;;;8400251;28;23989;-74
2022/09/12 17:34:35;;;;;;;;;;;23.00;99.90;;;;;;8404671;28;20364;-74
2022/09/12 17:38:38;;;;;;;;;;;22.90;99.90;;;;;;8388558;28;19924;-74
2022/09/12 17:42:40;;;;;;;;;;;22.80;99.90;;;;;;8409023;28;19927;-73
2022/09/12 17:46:42;;;;;;;;;;;22.70;99.90;;;;;;8408637;28;19920;-73
2022/09/12 17:50:44;;;;;;;;;;;22.60;99.90;;;;;;8404244;28;19924;-73
2022/09/12 17:54:46;;;;;;;;;;;22.50;99.90;;;;;;8386944;28;20705;-73
2022/09/12 17:58:47;;;;;;;;;;;22.40;99.90;;;;;;8405404;28;19930;-73
2022/09/12 18:02:49;;;;;;;;;;;22.40;99.90;;;;;;8408005;28;19928;-73
2022/09/12 18:06:51;;;;;;;;;;;22.20;99.90;;;;;;8407129;28;19948;-73
2022/09/12 18:10:53;;;;;;;;;;;22.20;99.90;;;;;;8402671;28;19935;-73
2022/09/12 18:14:54;;;;;;;;;;;22.10;99.90;;;;;;8405368;28;19930;-73
2022/09/12 18:19:02;;;;;;;;;;;22.00;99.90;;;;;;8391137;28;19920;-73
2022/09/12 18:23:04;;;;;;;;;;;22.00;99.90;;;;;;8401480;28;20641;-72
2022/09/12 18:27:06;;;;;;;;;;;21.90;99.90;;;;;;8409629;28;19923;-72
2022/09/12 18:31:12;;;;;;;;;;;21.80;99.90;;;;;;8409708;28;19931;-73
2022/09/12 18:35:13;;;;;;;;;;;21.70;99.90;;;;;;8390579;28;20311;-73
2022/09/12 18:39:16;;;;;;;;;;;21.60;99.90;;;;;;8407636;28;19930;-73
2022/09/12 18:43:17;;;;;;;;;;;21.60;99.90;;;;;;8403138;28;19924;-73
2022/09/12 18:47:19;;;;;;;;;;;21.50;99.90;;;;;;8403969;28;19959;-73
2022/09/12 18:51:21;;;;;;;;;;;21.40;99.90;;;;;;8402591;28;19932;-73
2022/09/12 18:55:23;;;;;;;;;;;21.30;99.90;;;;;;8403763;28;19920;-73
2022/09/12 18:59:25;;;;;;;;;;;21.20;99.90;;;;;;8408287;28;19919;-73
2022/09/12 19:03:26;;;;;;;;;;;21.20;99.90;;;;;;8400938;28;19927;-73
2022/09/12 19:07:28;;;;;;;;;;;21.10;99.90;;;;;;8411562;28;20939;-73
2022/09/12 19:11:30;;;;;;;;;;;21.00;99.90;;;;;;8399145;28;19928;-73
2022/09/12 19:15:31;;;;;;;;;;;21.00;99.90;;;;;;8404452;28;20018;-73
2022/09/12 19:19:33;;;;;;;;;;;20.90;99.90;;;;;;8407184;28;20008;-73
2022/09/12 19:23:39;;;;;;;;;;;20.80;99.90;;;;;;8386858;28;19942;-73
2022/09/12 19:27:40;;;;;;;;;;;20.70;99.90;;;;;;8399795;28;20390;-73
2022/09/12 19:31:42;;;;;;;;;;;20.70;99.90;;;;;;8399025;28;19934;-73
2022/09/12 19:35:44;;;;;;;;;;;20.60;99.90;;;;;;8387184;28;19926;-73
2022/09/12 19:39:46;;;;;;;;;;;20.60;99.90;;;;;;8402905;28;19949;-73
2022/09/12 19:43:47;;;;;;;;;;;20.50;99.90;;;;;;8403941;28;19921;-73
2022/09/12 19:47:49;;;;;;;;;;;20.50;99.90;;;;;;8400842;28;19928;-73
2022/09/12 19:51:50;;;;;;;;;;;20.40;99.90;;;;;;8405871;28;19920;-73
2022/09/12 19:55:57;;;;;;;;;;;20.40;99.90;;;;;;8400198;28;19978;-73
2022/09/12 19:59:58;;;;;;;;;;;20.40;99.90;;;;;;8403853;28;19939;-73
2022/09/12 20:04:00;;;;;;;;;;;20.40;99.90;;;;;;8382680;28;19946;-74
2022/09/12 20:08:02;;;;;;;;;;;20.40;99.90;;;;;;8404514;28;19928;-73
2022/09/12 20:12:03;;;;;;;;;;;20.40;99.90;;;;;;8400431;28;19944;-73
2022/09/12 20:16:09;;;;;;;;;;;20.30;99.90;;;;;;8404115;28;19920;-73
2022/09/12 20:20:11;;;;;;;;;;;20.30;99.90;;;;;;8404335;28;19928;-73
2022/09/12 20:24:14;;;;;;;;;;;20.30;99.90;;;;;;8402289;28;20382;-73
2022/09/12 20:28:16;;;;;;;;;;;20.30;99.90;;;;;;8401453;28;19938;-73
2022/09/12 20:32:18;;;;;;;;;;;20.20;99.90;;;;;;8395908;28;20015;-74
2022/09/12 20:36:20;;;;;;;;;;;20.20;99.90;;;;;;8405882;28;19925;-73
2022/09/12 20:40:22;;;;;;;;;;;20.20;99.90;;;;;;8399941;28;20433;-73
2022/09/12 20:44:24;;;;;;;;;;;20.10;99.90;;;;;;8399542;28;19973;-73
2022/09/12 20:48:25;;;;;;;;;;;20.10;99.90;;;;;;8396664;28;19920;-73
2022/09/12 20:52:27;;;;;;;;;;;20.10;99.90;;;;;;8404331;28;19924;-73
2022/09/12 20:56:30;;;;;;;;;;;20.10;99.90;;;;;;8396144;28;20027;-73
2022/09/12 21:00:32;;;;;;;;;;;20.00;99.90;;;;;;8401101;28;20159;-73
2022/09/12 21:04:33;;;;;;;;;;;20.00;99.90;;;;;;8422454;28;19926;-73
2022/09/12 21:08:35;;;;;;;;;;;19.90;99.90;;;;;;8419060;28;19927;-73
2022/09/12 21:12:37;;;;;;;;;;;19.90;99.90;;;;;;8420231;28;19927;-74
2022/09/12 21:16:39;;;;;;;;;;;19.90;99.90;;;;;;8419178;28;20536;-72
2022/09/12 21:20:40;;;;;;;;;;;19.90;99.90;;;;;;8393948;28;19924;-72
2022/09/12 21:24:42;;;;;;;;;;;19.80;99.90;;;;;;8420578;28;19920;-73
2022/09/12 21:28:43;;;;;;;;;;;19.70;99.90;;;;;;8423812;28;19927;-73
2022/09/12 21:32:45;;;;;;;;;;;19.70;99.90;;;;;;8411381;28;19927;-73
2022/09/12 21:36:47;;;;;;;;;;;19.60;99.90;;;;;;8409780;28;20104;-74
2022/09/12 21:40:48;;;;;;;;;;;19.60;99.90;;;;;;8409972;28;19934;-73
2022/09/12 21:44:50;;;;;;;;;;;19.60;99.90;;;;;;8392612;28;19926;-73
2022/09/12 21:48:51;;;;;;;;;;;19.60;99.90;;;;;;8397814;28;19924;-73
2022/09/12 21:52:53;;;;;;;;;;;19.60;99.90;;;;;;8416002;28;20007;-73
2022/09/12 21:56:55;;;;;;;;;;;19.60;99.90;;;;;;8415148;28;20366;-73
2022/09/12 22:00:56;;;;;;;;;;;19.60;99.90;;;;;;8412587;28;19930;-73
2022/09/12 22:04:58;;;;;;;;;;;19.50;99.90;;;;;;8410173;28;19935;-73
2022/09/12 22:08:59;;;;;;;;;;;19.50;99.90;;;;;;8411458;28;19938;-74
2022/09/12 22:13:01;;;;;;;;;;;19.50;99.90;;;;;;8411766;28;20355;-73
2022/09/12 22:17:04;;;;;;;;;;;19.50;99.90;;;;;;8394861;28;19919;-73
2022/09/12 22:21:07;;;;;;;;;;;19.50;99.90;;;;;;8417581;28;19920;-73
2022/09/12 22:25:10;;;;;;;;;;;19.50;99.90;;;;;;8418687;28;19928;-72
2022/09/12 22:29:12;;;;;;;;;;;19.50;99.90;;;;;;8414705;28;20070;-73
2022/09/12 22:33:14;;;;;;;;;;;19.50;99.90;;;;;;8418342;28;19920;-73
2022/09/12 22:37:16;;;;;;;;;;;19.50;99.90;;;;;;8416946;28;19934;-73
2022/09/12 22:41:18;;;;;;;;;;;19.50;99.90;;;;;;8420883;28;19924;-72
2022/09/12 22:45:19;;;;;;;;;;;19.40;99.90;;;;;;8399345;28;19919;-73
2022/09/12 22:49:21;;;;;;;;;;;19.40;99.90;;;;;;8417489;28;19920;-73
2022/09/12 22:53:23;;;;;;;;;;;19.40;99.90;;;;;;8418902;28;19920;-73
2022/09/12 22:57:24;;;;;;;;;;;19.40;99.90;;;;;;8419282;28;20612;-73
2022/09/12 23:01:26;;;;;;;;;;;19.40;99.90;;;;;;8413856;28;19921;-73
2022/09/12 23:05:27;;;;;;;;;;;19.30;99.90;;;;;;8416401;28;19920;-73
2022/09/12 23:09:29;;;;;;;;;;;19.30;99.90;;;;;;8401136;28;19928;-74
2022/09/12 23:13:36;;;;;;;;;;;19.30;99.90;;;;;;8423929;28;20266;-73
2022/09/12 23:17:38;;;;;;;;;;;19.30;99.90;;;;;;8421234;28;20256;-73
2022/09/12 23:21:39;;;;;;;;;;;19.30;99.90;;;;;;8413432;28;19943;-72
2022/09/12 23:30:44;;;;;;;;;;;19.20;99.90;;;;;;8420644;28;19923;-73
2022/09/12 23:34:46;;;;;;;;;;;19.20;99.90;;;;;;8417773;28;20298;-72
2022/09/12 23:38:48;;;;;;;;;;;19.10;99.90;;;;;;8416062;28;20416;-73
2022/09/12 23:42:50;;;;;;;;;;;19.10;99.90;;;;;;8413800;28;19928;-73